createdAt,value
2019-04-29T00:01:58.128Z,7.5
2019-04-29T00:07:00.349Z,7.4
2019-04-29T00:12:02.826Z,7.4
2019-04-29T00:17:05.289Z,7.3
2019-04-29T00:22:07.730Z,7.3
2019-04-29T00:27:10.126Z,7.3
2019-04-29T00:32:12.977Z,7.3
2019-04-29T00:37:14.998Z,7.2
2019-04-29T00:42:17.585Z,7.1
2019-04-29T00:47:19.933Z,7.1
2019-04-29T00:52:22.326Z,7.1
2019-04-29T00:57:24.762Z,7
2019-04-29T01:02:27.272Z,7
2019-04-29T01:07:29.851Z,7
2019-04-29T01:12:32.180Z,6.9
2019-04-29T01:17:34.533Z,6.9
2019-04-29T01:22:36.945Z,6.9
2019-04-29T01:27:39.404Z,6.9
2019-04-29T01:32:41.835Z,6.8
2019-04-29T01:37:44.372Z,6.8
2019-04-29T01:42:46.820Z,6.8
2019-04-29T01:47:49.153Z,6.8
2019-04-29T01:52:51.726Z,6.8
2019-04-29T01:57:54.041Z,6.8
2019-04-29T02:02:56.686Z,6.7
2019-04-29T02:07:59.094Z,6.7
2019-04-29T02:13:01.381Z,6.7
2019-04-29T02:18:03.946Z,6.7
2019-04-29T02:23:06.264Z,6.7
2019-04-29T02:28:08.767Z,6.6
2019-04-29T02:33:11.119Z,6.6
2019-04-29T02:38:13.609Z,6.5
2019-04-29T02:43:16.051Z,6.5
2019-04-29T02:48:18.476Z,6.4
2019-04-29T02:53:20.922Z,6.4
2019-04-29T02:58:23.356Z,6.4
2019-04-29T03:03:25.807Z,6.4
2019-04-29T03:08:28.208Z,6.3
2019-04-29T03:13:30.720Z,6.4
2019-04-29T03:18:33.094Z,6.4
2019-04-29T03:23:35.622Z,6.4
2019-04-29T03:28:38.004Z,6.4
2019-04-29T03:38:42.968Z,6.4
2019-04-29T03:43:45.355Z,6.4
2019-04-29T03:48:47.746Z,6.4
2019-04-29T03:53:50.310Z,6.4
2019-04-29T03:58:52.627Z,6.4
2019-04-29T04:03:55.212Z,6.5
2019-04-29T04:09:05.773Z,6.5
2019-04-29T04:13:59.940Z,6.5
2019-04-29T04:19:02.410Z,6.5
2019-04-29T04:24:04.848Z,6.5
2019-04-29T04:29:07.323Z,6.5
2019-04-29T04:34:09.715Z,6.5
2019-04-29T04:39:12.180Z,6.5
2019-04-29T04:44:14.597Z,6.6
2019-04-29T04:54:19.570Z,6.6
2019-04-29T04:59:22.167Z,6.6
2019-04-29T05:04:24.382Z,6.7
2019-04-29T05:09:26.831Z,6.7
2019-04-29T05:14:29.275Z,6.7
2019-04-29T05:19:31.683Z,6.7
2019-04-29T05:24:34.143Z,6.7
2019-04-29T05:29:36.608Z,6.7
2019-04-29T05:39:41.471Z,6.7
2019-04-29T05:44:43.873Z,6.7
2019-04-29T05:49:46.344Z,6.7
2019-04-29T05:54:48.777Z,6.8
2019-04-29T05:59:51.225Z,6.8
2019-04-29T06:04:53.975Z,6.8
2019-04-29T06:09:56.420Z,6.8
2019-04-29T06:14:58.533Z,6.7
2019-04-29T06:20:01.026Z,6.8
2019-04-29T06:25:03.426Z,6.8
2019-04-29T06:30:05.942Z,6.8
2019-04-29T06:35:10.515Z,6.7
2019-04-29T06:40:10.855Z,6.7
2019-04-29T06:45:13.184Z,6.6
2019-04-29T06:50:15.605Z,6.5
2019-04-29T06:55:18.092Z,6.5
2019-04-29T07:00:22.107Z,6.5
2019-04-29T07:05:22.930Z,6.5
2019-04-29T07:10:26.932Z,6.5
2019-04-29T07:15:27.882Z,6.4
2019-04-29T07:20:32.353Z,6.3
2019-04-29T07:25:32.795Z,6.3
2019-04-29T07:30:37.530Z,6.3
2019-04-29T07:35:38.215Z,6.3
2019-04-29T07:40:43.254Z,6.3
2019-04-29T07:45:44.218Z,6.3
2019-04-29T07:50:45.155Z,6.3
2019-04-29T07:55:47.381Z,6.3
2019-04-29T08:00:50.005Z,6.2
2019-04-29T08:05:52.364Z,6.2
2019-04-29T08:10:56.644Z,6.2
2019-04-29T08:15:57.122Z,6.2
2019-04-29T08:20:59.656Z,6.2
2019-04-29T08:31:04.453Z,6.2
2019-04-29T08:41:09.409Z,6.2
2019-04-29T08:46:11.772Z,6.2
2019-04-29T08:51:14.238Z,6.2
2019-04-29T08:56:16.770Z,6.2
2019-04-29T09:01:19.125Z,6.3
2019-04-29T09:06:22.781Z,6.3
2019-04-29T09:11:23.950Z,6.3
2019-04-29T09:16:26.378Z,6.3
2019-04-29T09:21:28.945Z,6.4
2019-04-29T09:26:31.260Z,6.3
2019-04-29T09:31:33.703Z,6.4
2019-04-29T09:36:36.434Z,6.4
2019-04-29T09:41:38.953Z,6.4
2019-04-29T09:51:43.501Z,6.3
2019-04-29T09:56:45.989Z,6.3
2019-04-29T10:01:50.380Z,6.3
2019-04-29T10:06:50.776Z,6.3
2019-04-29T10:11:53.220Z,6.3
2019-04-29T10:16:55.667Z,6.3
2019-04-29T10:21:58.128Z,6.3
2019-04-29T10:27:00.581Z,6.3
2019-04-29T10:32:06.700Z,6.3
2019-04-29T10:42:07.918Z,6.3
2019-04-29T10:47:10.352Z,6.3
2019-04-29T10:52:12.772Z,6.3
2019-04-29T10:57:15.938Z,6.4
2019-04-29T11:02:17.642Z,6.4
2019-04-29T11:07:26.294Z,6.4
2019-04-29T11:12:22.483Z,6.5
2019-04-29T11:17:24.926Z,6.4
2019-04-29T11:22:27.408Z,6.5
2019-04-29T11:27:29.808Z,6.6
2019-04-29T11:32:32.309Z,6.6
2019-04-29T11:37:34.756Z,6.7
2019-04-29T11:42:41.567Z,6.7
2019-04-29T11:47:39.586Z,6.7
2019-04-29T11:52:42.182Z,6.6
2019-04-29T11:57:44.469Z,6.6
2019-04-29T12:07:49.540Z,6.5
2019-04-29T12:12:52.140Z,6.6
2019-04-29T12:17:54.268Z,6.6
2019-04-29T12:22:56.683Z,6.6
2019-04-29T12:28:01.767Z,6.6
2019-04-29T12:33:03.073Z,6.6
2019-04-29T12:38:05.499Z,6.6
2019-04-29T12:43:06.543Z,6.6
2019-04-29T12:48:09.177Z,6.6
2019-04-29T12:53:11.511Z,6.7
2019-04-29T12:58:13.755Z,6.7
2019-04-29T13:03:16.175Z,6.7
2019-04-29T13:08:18.623Z,6.7
2019-04-29T13:13:21.960Z,6.7
2019-04-29T13:18:23.800Z,6.7
2019-04-29T13:23:34.617Z,6.7
2019-04-29T13:28:30.074Z,6.7
2019-04-29T13:33:30.813Z,6.8
2019-04-29T13:38:33.292Z,6.8
2019-04-29T13:43:35.865Z,6.8
2019-04-29T13:48:54.568Z,6.9
2019-04-29T13:53:40.634Z,6.9
2019-04-29T13:58:43.046Z,6.9
2019-04-29T14:03:46.758Z,7
2019-04-29T14:08:47.937Z,7
2019-04-29T14:13:50.498Z,7
2019-04-29T14:18:53.318Z,7.1
2019-04-29T14:23:55.271Z,7
2019-04-29T14:28:57.973Z,7.1
2019-04-29T14:34:00.517Z,7.1
2019-04-29T14:39:02.612Z,7.1
2019-04-29T14:44:05.040Z,7.1
2019-04-29T14:49:07.491Z,7
2019-04-29T14:54:09.867Z,7.1
2019-04-29T14:59:12.448Z,7
2019-04-29T15:04:18.204Z,7.1
2019-04-29T15:09:19.631Z,7.1
2019-04-29T15:14:23.634Z,7.1
2019-04-29T15:19:22.093Z,7.1
2019-04-29T15:24:27.257Z,7.1
2019-04-29T15:29:27.298Z,7.1
2019-04-29T15:34:29.388Z,7.2
2019-04-29T15:39:31.848Z,7.1
2019-04-29T15:44:34.327Z,7.2
2019-04-29T15:49:36.843Z,7.2
2019-04-29T15:54:39.170Z,7.2
2019-04-29T15:59:48.785Z,7.2
2019-04-29T16:04:47.201Z,7.3
2019-04-29T16:09:51.548Z,7.3
2019-04-29T16:14:49.286Z,7.3
2019-04-29T16:19:51.480Z,7.3
2019-04-29T16:24:59.148Z,7.3
2019-04-29T16:29:56.657Z,7.3
2019-04-29T16:34:58.814Z,7.3
2019-04-29T16:40:01.430Z,7.3
2019-04-29T16:45:06.022Z,7.3
2019-04-29T16:50:06.150Z,7.3
2019-04-29T16:55:08.445Z,7.3
2019-04-29T17:05:13.824Z,7.4
2019-04-29T17:10:15.821Z,7.4
2019-04-29T17:15:24.964Z,7.4
2019-04-29T17:20:20.693Z,7.4
2019-04-29T17:25:23.255Z,7.5
2019-04-29T17:30:25.844Z,7.5
2019-04-29T17:35:28.026Z,7.5
2019-04-29T17:40:30.439Z,7.5
2019-04-29T17:45:33.133Z,7.5
2019-04-29T17:50:38.446Z,7.5
2019-04-29T17:55:40.676Z,7.5
2019-04-29T18:00:43.583Z,7.6
2019-04-29T18:05:52.822Z,7.5
2019-04-29T18:10:45.775Z,7.5
2019-04-29T18:16:00.352Z,7.6
2019-04-29T18:20:49.966Z,7.6
2019-04-29T18:25:52.502Z,7.6
2019-04-29T18:30:57.789Z,7.6
2019-04-29T18:36:03.557Z,7.6
2019-04-29T18:40:59.753Z,7.6
2019-04-29T18:46:05.855Z,7.6
2019-04-29T18:51:05.696Z,7.6
2019-04-29T18:56:07.382Z,7.6
2019-04-29T19:01:09.874Z,7.7
2019-04-29T19:06:11.980Z,7.7
2019-04-29T19:11:15.248Z,7.7
2019-04-29T19:16:18.122Z,7.7
2019-04-29T19:21:19.280Z,7.7
2019-04-29T19:26:22.247Z,7.7
2019-04-29T19:31:25.155Z,7.8
2019-04-29T19:36:26.667Z,7.7
2019-04-29T19:41:29.058Z,7.8
2019-04-29T19:46:37.239Z,7.8
2019-04-29T19:51:35.085Z,7.8
2019-04-29T19:56:36.404Z,7.8
2019-04-29T20:01:39.215Z,7.8
2019-04-29T20:06:44.476Z,7.9
2019-04-29T20:11:45.747Z,7.9
2019-04-29T20:16:54.753Z,7.9
2019-04-29T20:21:48.726Z,8
2019-04-29T20:26:51.157Z,8
2019-04-29T20:31:56.280Z,8
2019-04-29T20:36:56.511Z,8
2019-04-29T20:42:00.911Z,8
2019-04-29T20:47:16.365Z,8.1
2019-04-29T20:52:05.253Z,8.1
2019-04-29T20:57:17.006Z,8.1
2019-04-29T21:02:12.348Z,8.1
2019-04-29T21:07:10.897Z,8.1
2019-04-29T21:12:12.982Z,8.2
2019-04-29T21:17:27.840Z,8.2
2019-04-29T21:22:21.780Z,8.2
2019-04-29T21:27:22.270Z,8.2
2019-04-29T21:32:22.777Z,8.2
2019-04-29T21:37:25.873Z,8.2
2019-04-29T21:42:35.053Z,8.3
2019-04-29T21:47:41.291Z,8.3
2019-04-29T21:52:32.508Z,8.3
2019-04-29T21:57:34.963Z,8.3
2019-04-29T22:02:37.482Z,8.3
2019-04-29T22:07:43.911Z,8.3
2019-04-29T22:12:42.609Z,8.3
2019-04-29T22:17:54.293Z,8.3
2019-04-29T22:22:47.749Z,8.3
2019-04-29T22:27:49.601Z,8.3
2019-04-29T22:32:56.020Z,8.3
2019-04-29T22:37:55.489Z,8.2
2019-04-29T22:43:04.564Z,8.2
2019-04-29T22:48:11.955Z,8.2
2019-04-29T22:53:05.847Z,8.2
2019-04-29T22:58:05.853Z,8.2
2019-04-29T23:03:06.769Z,8.2
2019-04-29T23:08:09.212Z,8.1
2019-04-29T23:13:11.895Z,8.1
2019-04-29T23:18:24.247Z,8.1
2019-04-29T23:23:16.441Z,8
2019-04-29T23:28:22.386Z,8
2019-04-29T23:33:23.898Z,7.9
2019-04-29T23:38:25.523Z,7.9
2019-04-29T23:43:28.335Z,7.8
2019-04-29T23:48:38.529Z,7.8
2019-04-29T23:53:31.168Z,7.7
2019-04-29T23:58:37.063Z,7.7
